Brandon Municipal Airport
CYBR : now visible

Airfield :











YOU CAN JOIN US ON...

 
LOGIN :

Register | Disclaimer

   EN    FR    IT 

 









Legend :    VFR   Marginal VFR   IFR   Intensive IFR   Very Intensive IFR
Visi :
Ceiling :
>= 8 km
>= 3000ft
5 to 8 km
1000 to 3000 ft
1500m to 5 km
500 to 1000 ft
800 to 1500m
200 to 500 ft
< 800m
< 200 ft
Symbols :   Thunderstorms  Fog  Heavy snow  Heavy precipitations  Wind > 20 kt






- Airport Elevation : 1343 ft
- IATA code : YBR


CYBR - Brandon Municipal

CURRENT METAR :
  • 151400Z 35011G17KT 15SM FEW008 SCT013 18/16 A2986 RMK SF1SC2 CVCTV TOPS E SLP118 DENSITY ALT 2100FT

EXPIRED METARs :
  • 151345Z 34012KT 15SM SCT008 BKN013 17/15 A2986 RMK SF4SC2 CVCTV TOPS NE SLP118 DENSITY ALT 2000FT
  • 151352Z 36011G16KT 15SM FEW008 SCT013 17/15 A2986 RMK SF2SC2 CVCTV TOPS NE SLP118 DENSITY ALT 2000FT
  • 151300Z 34010KT 15SM FEW004 FEW015 FEW075 17/16 A2985 RMK SF1SC1AC2 SF TR SC TR CVCTV TOPS NE SLP113 DENSITY ALT 2000FT
  • 151200Z 32007KT 15SM FEW013 FEW080 SCT240 15/15 A2984 RMK SC1ACC1CI1 SLP110 DENSITY ALT 1700FT
  • 151100Z 31007KT 15SM FEW015TCU FEW080 SCT250 13/13 A2982 RMK TCU1ACC1CI2 TCU NE SLP103 DENSITY ALT 1600FT
  • 151018Z 28004KT 15SM SCT013 SCT080 BKN240 14/14 A2981 RMK SC3ACC1CI2 SLP101 DENSITY ALT 1700FT
  • 151000Z 28006KT 15SM -SHRA FEW018 OVC080 14/14 A2981 RMK SC2AC6 CVCTV CLD EMBD SLP100 DENSITY ALT 1700FT
  • 150936Z VRB03KT 15SM -SHRA FEW030CB OVC080 14/14 A2980 RMK CB1AC7 FRQ DIST LTNG SE PRESFR SLP097 DENSITY ALT 1800FT

TAF TAF CYBR
Valid from the 15 at 12:00 until the 16 at 00:00 UTC


151140Z 1512/1524 33012KT P6SM SCT015
TEMPO 1512/1518 BKN015
FM151800 32012KT P6SM BKN040
TEMPO 1518/1524 P6SM VCSH RMK NXT FCST BY 151800Z
CZWG FIR / North America



MET'MAP, your aeronautical weather chart ! - Copyright ORBIFLY December 2007 - Disclaimer

ORBIFLY MET'MAP TEAM :

Programming & Development : Alexandra Zaïnal
Original concept : Baudouin d'Aumeries
Technical & hardware support : Manuel Goepfert
Assistance : Marc-Olivier Méhu




SOURCES & CREDITS :

   NOAA       Earth
Advisory